createdAt,value
2022-11-30T00:01:33.316Z,98016.16
2022-11-30T00:04:02.602Z,98008.44
2022-11-30T00:06:31.613Z,98008.38
2022-11-30T00:09:02.772Z,98002.69
2022-11-30T00:11:31.454Z,98011.78
2022-11-30T00:14:01.123Z,98006.88
2022-11-30T00:16:29.844Z,98009.16
2022-11-30T00:18:59.062Z,98005.38
2022-11-30T00:21:30.186Z,98005.69
2022-11-30T00:23:58.830Z,98003.69
2022-11-30T00:26:29.347Z,97999.72
2022-11-30T00:28:58.869Z,98002.44
2022-11-30T00:31:27.905Z,98005.16
2022-11-30T00:33:58.167Z,98002.06
2022-11-30T00:36:29.417Z,97999.63
2022-11-30T00:38:58.553Z,98004.34
2022-11-30T00:41:28.642Z,98002.69
2022-11-30T00:43:57.634Z,98006.91
2022-11-30T00:46:44.519Z,98006.78
2022-11-30T00:49:13.445Z,97999.91
2022-11-30T00:51:42.116Z,98007.72
2022-11-30T00:54:12.290Z,98000.25
2022-11-30T00:56:43.538Z,98009.63
2022-11-30T00:59:13.440Z,98007.81
2022-11-30T01:01:43.199Z,98007.50
2022-11-30T01:04:12.425Z,98006.81
2022-11-30T01:06:42.093Z,98006.72
2022-11-30T01:09:12.594Z,98013.28
2022-11-30T01:11:42.692Z,98006.72
2022-11-30T01:14:11.471Z,98009.63
2022-11-30T01:16:40.163Z,98008.53
2022-11-30T01:19:08.854Z,98012.41
2022-11-30T01:21:38.965Z,98011.97
2022-11-30T01:24:11.136Z,98019.44
2022-11-30T01:26:40.238Z,98013.44
2022-11-30T01:29:28.796Z,98011.31
2022-11-30T01:31:57.667Z,98012.28
2022-11-30T01:34:26.635Z,98010.69
2022-11-30T01:36:56.769Z,98011.91
2022-11-30T01:39:25.457Z,98009.88
2022-11-30T01:41:55.339Z,98001.72
2022-11-30T01:44:51.031Z,98012.72
2022-11-30T01:47:21.953Z,98011.69
2022-11-30T01:49:56.081Z,98014.16
2022-11-30T01:52:27.804Z,98018.97
2022-11-30T01:54:59.172Z,98004.63
2022-11-30T01:57:34.289Z,98011.69
2022-11-30T02:00:09.067Z,98008.78
2022-11-30T02:02:41.948Z,98016.88
2022-11-30T02:05:10.911Z,98010.28
2022-11-30T02:07:39.672Z,98016.06
2022-11-30T02:10:09.479Z,98013.34
2022-11-30T02:12:42.874Z,98012.81
2022-11-30T02:15:14.001Z,98008.34
2022-11-30T02:17:46.337Z,98008.78
2022-11-30T02:20:33.132Z,98008.88
2022-11-30T02:23:22.114Z,98013.09
2022-11-30T02:25:58.451Z,98017.41
2022-11-30T02:28:45.251Z,98017.88
2022-11-30T02:31:16.980Z,98021.78
2022-11-30T02:33:45.858Z,98014.13
2022-11-30T02:36:14.611Z,98007.97
2022-11-30T02:38:43.853Z,97998.66
2022-11-30T02:41:12.808Z,98004.75
2022-11-30T02:43:43.236Z,98008.81
2022-11-30T02:46:16.136Z,98007.53
2022-11-30T02:48:45.887Z,98003.91
2022-11-30T02:51:15.850Z,98008.38
2022-11-30T02:53:44.947Z,98007.72
2022-11-30T02:56:13.885Z,98011.03
2022-11-30T02:58:45.006Z,98006.06
2022-11-30T03:01:14.160Z,98014.97
2022-11-30T03:03:43.506Z,98001.34
2022-11-30T03:06:14.279Z,98009.94
2022-11-30T03:08:43.130Z,98005.13
2022-11-30T03:11:12.037Z,98003.31
2022-11-30T03:13:41.407Z,97999.88
2022-11-30T03:16:12.763Z,98002.97
2022-11-30T03:18:42.573Z,98010.94
2022-11-30T03:21:12.470Z,98016.78
2022-11-30T03:23:41.375Z,98013.63
2022-11-30T03:26:10.673Z,98015.59
2022-11-30T03:28:40.027Z,98024.31
2022-11-30T03:31:09.041Z,98012.91
2022-11-30T03:33:42.248Z,98019.22
2022-11-30T03:36:12.491Z,98024.53
2022-11-30T03:38:41.430Z,98028.00
2022-11-30T03:41:11.393Z,98018.00
2022-11-30T03:43:41.822Z,98026.94
2022-11-30T03:46:11.002Z,98026.94
2022-11-30T03:48:42.535Z,98033.31
2022-11-30T03:51:12.014Z,98033.31
2022-11-30T03:53:41.054Z,98036.00
2022-11-30T03:56:10.676Z,98033.94
2022-11-30T03:58:40.024Z,98031.22
2022-11-30T04:01:09.824Z,98032.38
2022-11-30T04:03:38.843Z,98036.94
2022-11-30T04:06:09.785Z,98038.25
2022-11-30T04:08:39.215Z,98043.91
2022-11-30T04:11:08.697Z,98034.19
2022-11-30T04:13:42.384Z,98036.03
2022-11-30T04:16:12.035Z,98038.13
2022-11-30T04:18:41.894Z,98033.38
2022-11-30T04:21:13.812Z,98037.94
2022-11-30T04:23:43.496Z,98023.69
2022-11-30T04:26:13.468Z,98029.00
2022-11-30T04:28:42.238Z,98020.78
2022-11-30T04:31:11.546Z,98024.56
2022-11-30T04:33:40.307Z,98027.94
2022-11-30T04:36:10.739Z,98026.72
2022-11-30T04:38:41.178Z,98030.47
2022-11-30T04:41:10.110Z,98032.19
2022-11-30T04:43:39.202Z,98036.47
2022-11-30T04:46:09.593Z,98026.00
2022-11-30T04:48:38.750Z,98040.09
2022-11-30T04:51:08.676Z,98043.47
2022-11-30T04:53:38.055Z,98034.94
2022-11-30T04:56:11.562Z,98045.22
2022-11-30T04:58:40.612Z,98041.44
2022-11-30T05:01:09.491Z,98044.00
2022-11-30T05:03:38.219Z,98043.78
2022-11-30T05:06:28.217Z,98040.59
2022-11-30T05:08:56.917Z,98047.09
2022-11-30T05:11:27.022Z,98055.34
2022-11-30T05:13:56.150Z,98055.25
2022-11-30T05:16:25.022Z,98058.59
2022-11-30T05:18:53.701Z,98058.09
2022-11-30T05:21:22.665Z,98064.69
2022-11-30T05:23:52.579Z,98062.38
2022-11-30T05:26:21.289Z,98067.53
2022-11-30T05:28:51.364Z,98064.88
2022-11-30T05:31:20.551Z,98072.28
2022-11-30T05:33:52.463Z,98066.00
2022-11-30T05:36:23.779Z,98073.81
2022-11-30T05:38:54.148Z,98068.00
2022-11-30T05:41:23.904Z,98065.91
2022-11-30T05:43:54.079Z,98064.13
2022-11-30T05:46:22.836Z,98070.47
2022-11-30T05:48:51.874Z,98064.78
2022-11-30T05:51:21.125Z,98069.41
2022-11-30T05:53:51.147Z,98063.16
2022-11-30T05:56:20.915Z,98070.47
2022-11-30T05:58:49.614Z,98076.28
2022-11-30T06:01:21.355Z,98080.16
2022-11-30T06:06:36.589Z,98076.47
2022-11-30T06:09:05.669Z,98074.66
2022-11-30T06:11:34.385Z,98080.28
2022-11-30T06:14:03.146Z,98071.53
2022-11-30T06:16:33.805Z,98073.72
2022-11-30T06:19:20.723Z,98079.28
2022-11-30T06:21:49.425Z,98068.81
2022-11-30T06:24:18.125Z,98072.34
2022-11-30T06:26:46.848Z,98071.66
2022-11-30T06:29:15.963Z,98069.38
2022-11-30T06:31:46.120Z,98073.06
2022-11-30T06:34:14.839Z,98081.41
2022-11-30T06:36:43.584Z,98069.84
2022-11-30T06:39:12.716Z,98075.72
2022-11-30T06:41:41.773Z,98066.63
2022-11-30T06:44:11.214Z,98073.44
2022-11-30T06:46:40.054Z,98070.00
2022-11-30T06:49:11.233Z,98069.78
2022-11-30T06:51:42.660Z,98080.63
2022-11-30T06:54:11.967Z,98075.88
2022-11-30T06:56:40.607Z,98086.59
2022-11-30T06:59:09.787Z,98094.78
2022-11-30T07:01:38.475Z,98090.41
2022-11-30T07:04:07.292Z,98087.38
2022-11-30T07:06:37.361Z,98086.59
2022-11-30T07:09:06.556Z,98087.50
2022-11-30T07:11:35.516Z,98093.69
2022-11-30T07:14:04.190Z,98095.97
2022-11-30T07:16:33.188Z,98094.94
2022-11-30T07:19:01.896Z,98099.03
2022-11-30T07:21:30.932Z,98099.41
2022-11-30T07:24:20.307Z,98105.25
2022-11-30T07:26:48.987Z,98106.53
2022-11-30T07:29:17.641Z,98106.00
2022-11-30T07:31:51.881Z,98106.69
2022-11-30T07:34:20.631Z,98101.47
2022-11-30T07:36:49.330Z,98109.53
2022-11-30T07:39:19.468Z,98105.59
2022-11-30T07:41:48.122Z,98114.03
2022-11-30T07:44:16.799Z,98111.47
2022-11-30T07:46:45.487Z,98108.88
2022-11-30T07:49:14.177Z,98117.91
2022-11-30T07:54:30.071Z,98123.75
2022-11-30T07:56:58.718Z,98118.72
2022-11-30T07:59:27.450Z,98129.94
2022-11-30T08:01:56.284Z,98124.34
2022-11-30T08:04:25.764Z,98131.47
2022-11-30T08:06:55.375Z,98124.25
2022-11-30T08:09:24.300Z,98129.09
2022-11-30T08:11:54.390Z,98127.69
2022-11-30T08:14:23.051Z,98133.84
2022-11-30T08:16:52.112Z,98130.78
2022-11-30T08:19:20.836Z,98131.66
2022-11-30T08:21:52.034Z,98133.22
2022-11-30T08:24:20.761Z,98139.25
2022-11-30T08:26:53.999Z,98126.34
2022-11-30T08:29:22.883Z,98133.38
2022-11-30T08:31:51.580Z,98135.19
2022-11-30T08:34:32.613Z,98133.50
2022-11-30T08:37:01.337Z,98130.56
2022-11-30T08:39:32.075Z,98137.41
2022-11-30T08:42:02.219Z,98131.88
2022-11-30T08:44:31.230Z,98137.72
2022-11-30T08:46:59.987Z,98134.88
2022-11-30T08:49:29.651Z,98141.38
2022-11-30T08:54:47.916Z,98145.19
2022-11-30T08:57:18.976Z,98147.84
2022-11-30T08:59:48.442Z,98151.41
2022-11-30T09:02:18.841Z,98150.59
2022-11-30T09:04:49.699Z,98156.00
2022-11-30T09:07:18.532Z,98165.69
2022-11-30T09:12:37.520Z,98165.63
2022-11-30T09:15:07.079Z,98163.22
2022-11-30T09:17:35.771Z,98168.13
2022-11-30T09:20:04.529Z,98165.16
2022-11-30T09:22:34.999Z,98162.78
2022-11-30T09:25:03.923Z,98168.50
2022-11-30T09:27:33.930Z,98162.72
2022-11-30T09:30:05.422Z,98167.25
2022-11-30T09:32:34.130Z,98161.16
2022-11-30T09:35:02.816Z,98169.34
2022-11-30T09:37:31.556Z,98165.31
2022-11-30T09:40:00.485Z,98163.19
2022-11-30T09:42:35.170Z,98160.41
2022-11-30T09:45:11.488Z,98162.91
2022-11-30T09:47:48.314Z,98163.09
2022-11-30T09:50:20.117Z,98162.88
2022-11-30T09:52:50.315Z,98165.28
2022-11-30T09:55:28.145Z,98165.28
2022-11-30T09:57:58.411Z,98157.28
2022-11-30T10:00:28.941Z,98163.47
2022-11-30T10:02:58.427Z,98160.06
2022-11-30T10:05:28.891Z,98166.22
2022-11-30T10:08:12.503Z,98166.53
2022-11-30T10:10:43.490Z,98157.94
2022-11-30T10:13:21.544Z,98158.03
2022-11-30T10:15:58.391Z,98162.53
2022-11-30T10:18:30.736Z,98164.22
2022-11-30T10:21:04.392Z,98161.97
2022-11-30T10:23:45.729Z,98159.22
2022-11-30T10:26:19.779Z,98157.59
2022-11-30T10:28:56.021Z,98158.94
2022-11-30T10:31:31.788Z,98155.63
2022-11-30T10:34:03.684Z,98159.88
2022-11-30T10:36:36.540Z,98147.50
2022-11-30T10:39:11.809Z,98159.56
2022-11-30T10:41:44.972Z,98152.06
2022-11-30T10:44:17.874Z,98150.28
2022-11-30T10:46:50.884Z,98149.59
2022-11-30T10:49:21.176Z,98150.47
2022-11-30T10:51:52.608Z,98146.25
2022-11-30T10:54:22.246Z,98145.44
2022-11-30T10:56:51.997Z,98143.63
2022-11-30T10:59:23.336Z,98138.00
2022-11-30T11:01:53.908Z,98150.72
2022-11-30T11:04:24.070Z,98145.22
2022-11-30T11:06:53.983Z,98152.63
2022-11-30T11:09:33.774Z,98142.75
2022-11-30T11:12:03.660Z,98147.06
2022-11-30T11:14:37.748Z,98139.91
2022-11-30T11:17:21.950Z,98146.16
2022-11-30T11:19:56.732Z,98144.38
2022-11-30T11:22:27.265Z,98150.56
2022-11-30T11:24:57.471Z,98143.22
2022-11-30T11:27:28.625Z,98154.38
2022-11-30T11:30:04.154Z,98146.72
2022-11-30T11:33:02.557Z,98147.03
2022-11-30T11:35:34.948Z,98144.47
2022-11-30T11:38:05.550Z,98140.28
2022-11-30T11:40:34.272Z,98139.81
2022-11-30T11:43:04.557Z,98146.09
2022-11-30T11:45:39.338Z,98148.56
2022-11-30T11:48:39.155Z,98141.81
2022-11-30T11:51:16.109Z,98144.84
2022-11-30T11:56:38.841Z,98148.00
2022-11-30T11:59:15.673Z,98149.31
2022-11-30T12:01:50.785Z,98151.13
2022-11-30T12:04:35.688Z,98149.41
2022-11-30T12:07:15.048Z,98153.41
2022-11-30T12:09:55.351Z,98154.66
2022-11-30T12:12:24.682Z,98157.78
2022-11-30T12:14:55.913Z,98158.63
2022-11-30T12:17:34.809Z,98153.97
2022-11-30T12:20:16.862Z,98156.53
2022-11-30T12:23:02.582Z,98154.19
2022-11-30T12:25:35.636Z,98163.69
2022-11-30T12:28:17.465Z,98161.97
2022-11-30T12:30:51.698Z,98162.66
2022-11-30T12:33:26.327Z,98157.50
2022-11-30T12:36:01.301Z,98159.03
2022-11-30T12:38:39.010Z,98156.84
2022-11-30T12:41:22.414Z,98151.44
2022-11-30T12:43:56.675Z,98155.59
2022-11-30T12:46:31.120Z,98160.47
2022-11-30T12:49:10.648Z,98162.25
2022-11-30T12:51:44.599Z,98163.97
2022-11-30T12:54:16.133Z,98173.38
2022-11-30T12:56:47.340Z,98166.16
2022-11-30T12:59:21.090Z,98168.53
2022-11-30T13:02:18.971Z,98164.81
2022-11-30T13:04:56.348Z,98168.34
2022-11-30T13:07:31.494Z,98176.44
2022-11-30T13:10:02.388Z,98168.91
2022-11-30T13:12:36.506Z,98167.88
2022-11-30T13:15:09.785Z,98166.25
2022-11-30T13:17:43.491Z,98169.75
2022-11-30T13:20:18.379Z,98172.03
2022-11-30T13:22:51.947Z,98168.81
2022-11-30T13:25:51.966Z,98176.06
2022-11-30T13:28:16.299Z,98166.81
2022-11-30T13:30:46.825Z,98165.50
2022-11-30T13:33:40.199Z,98159.88
2022-11-30T13:36:27.711Z,98160.16
2022-11-30T13:41:54.890Z,98161.53
2022-11-30T13:44:29.501Z,98163.47
2022-11-30T13:47:01.286Z,98166.91
2022-11-30T13:49:33.072Z,98155.03
2022-11-30T13:54:58.459Z,98157.22
2022-11-30T13:57:56.674Z,98157.41
2022-11-30T14:00:50.602Z,98160.44
2022-11-30T14:03:25.240Z,98165.00
2022-11-30T14:05:56.196Z,98173.84
2022-11-30T14:08:37.868Z,98172.16
2022-11-30T14:11:36.567Z,98173.00
2022-11-30T14:14:35.282Z,98174.03
2022-11-30T14:17:06.663Z,98182.97
2022-11-30T14:19:36.922Z,98176.25
2022-11-30T14:22:06.301Z,98180.88
2022-11-30T14:24:35.521Z,98183.25
2022-11-30T14:27:07.702Z,98188.91
2022-11-30T14:29:41.031Z,98190.66
2022-11-30T14:32:13.900Z,98196.38
2022-11-30T14:34:44.389Z,98197.53
2022-11-30T14:37:18.246Z,98199.22
2022-11-30T14:39:48.044Z,98200.00
2022-11-30T14:42:26.499Z,98201.72
2022-11-30T14:44:55.672Z,98198.88
2022-11-30T14:47:27.885Z,98199.66
2022-11-30T14:49:58.745Z,98199.81
2022-11-30T14:52:41.831Z,98204.75
2022-11-30T14:55:17.674Z,98204.97
2022-11-30T14:58:07.390Z,98201.72
2022-11-30T15:00:39.106Z,98211.28
2022-11-30T15:03:27.979Z,98218.72
2022-11-30T15:05:58.648Z,98220.69
2022-11-30T15:08:35.578Z,98212.25
2022-11-30T15:13:54.492Z,98207.13
2022-11-30T15:16:30.594Z,98207.59
2022-11-30T15:19:02.799Z,98209.84
2022-11-30T15:21:36.498Z,98214.06
2022-11-30T15:24:05.553Z,98206.63
2022-11-30T15:26:36.676Z,98214.00
2022-11-30T15:29:06.707Z,98208.53
2022-11-30T15:31:39.117Z,98210.44
2022-11-30T15:34:18.043Z,98215.91
2022-11-30T15:36:46.817Z,98212.53
2022-11-30T15:39:21.050Z,98217.69
2022-11-30T15:41:54.526Z,98213.63
2022-11-30T15:44:26.566Z,98218.16
2022-11-30T15:46:58.151Z,98217.88
2022-11-30T15:49:28.927Z,98222.63
2022-11-30T15:52:04.485Z,98222.41
2022-11-30T15:54:46.439Z,98232.16
2022-11-30T15:57:15.691Z,98229.59
2022-11-30T15:59:45.919Z,98226.53
2022-11-30T16:02:26.862Z,98230.13
2022-11-30T16:05:21.493Z,98233.19
2022-11-30T16:07:51.683Z,98235.91
2022-11-30T16:10:23.360Z,98233.25
2022-11-30T16:12:52.586Z,98228.91
2022-11-30T16:15:22.196Z,98237.09
2022-11-30T16:17:51.461Z,98237.81
2022-11-30T16:20:23.074Z,98239.38
2022-11-30T16:22:52.155Z,98235.47
2022-11-30T16:25:22.466Z,98240.03
2022-11-30T16:27:51.273Z,98238.97
2022-11-30T16:30:22.653Z,98238.47
2022-11-30T16:32:51.910Z,98241.63
2022-11-30T16:35:23.334Z,98249.56
2022-11-30T16:37:55.946Z,98240.09
2022-11-30T16:40:32.698Z,98244.97
2022-11-30T16:43:06.052Z,98242.44
2022-11-30T16:45:36.790Z,98247.53
2022-11-30T16:48:10.553Z,98248.38
2022-11-30T16:50:42.214Z,98243.91
2022-11-30T16:53:19.267Z,98249.56
2022-11-30T16:55:48.321Z,98247.84
2022-11-30T16:58:17.302Z,98253.81
2022-11-30T17:00:46.095Z,98252.50
2022-11-30T17:03:20.337Z,98252.41
2022-11-30T17:05:50.581Z,98256.78
2022-11-30T17:08:22.176Z,98270.72
2022-11-30T17:10:52.043Z,98270.06
2022-11-30T17:13:22.220Z,98269.50
2022-11-30T17:15:52.786Z,98271.59
2022-11-30T17:18:29.560Z,98271.38
2022-11-30T17:21:00.997Z,98272.97
2022-11-30T17:23:30.031Z,98271.25
2022-11-30T17:26:01.773Z,98278.97
2022-11-30T17:28:31.057Z,98266.00
2022-11-30T17:31:00.467Z,98272.97
2022-11-30T17:33:34.258Z,98275.72
2022-11-30T17:36:06.698Z,98281.88
2022-11-30T17:38:36.862Z,98285.47
2022-11-30T17:41:06.347Z,98287.03
2022-11-30T17:43:35.030Z,98283.88
2022-11-30T17:46:06.423Z,98294.75
2022-11-30T17:48:36.928Z,98294.56
2022-11-30T17:51:07.481Z,98293.28
2022-11-30T17:53:43.191Z,98306.41
2022-11-30T17:56:13.061Z,98305.81
2022-11-30T17:58:45.718Z,98306.75
2022-11-30T18:01:17.329Z,98306.19
2022-11-30T18:03:48.923Z,98301.19
2022-11-30T18:06:19.023Z,98304.19
2022-11-30T18:08:48.610Z,98312.44
2022-11-30T18:11:19.478Z,98309.78
2022-11-30T18:13:50.204Z,98315.88
2022-11-30T18:16:20.461Z,98315.03
2022-11-30T18:18:49.511Z,98321.56
2022-11-30T18:21:21.029Z,98324.38
2022-11-30T18:23:50.004Z,98323.94
2022-11-30T18:26:37.618Z,98326.25
2022-11-30T18:29:07.290Z,98320.50
2022-11-30T18:31:36.911Z,98329.94
2022-11-30T18:34:17.094Z,98324.81
2022-11-30T18:36:51.471Z,98332.00
2022-11-30T18:39:21.762Z,98326.88
2022-11-30T18:41:51.118Z,98329.03
2022-11-30T18:44:19.844Z,98325.75
2022-11-30T18:46:54.765Z,98332.03
2022-11-30T18:49:24.513Z,98326.53
2022-11-30T18:51:55.475Z,98328.31
2022-11-30T18:54:25.875Z,98327.38
2022-11-30T18:56:54.912Z,98336.22
2022-11-30T18:59:23.598Z,98334.38
2022-11-30T19:01:53.761Z,98339.56
2022-11-30T19:04:24.449Z,98338.19
2022-11-30T19:06:55.427Z,98332.97
2022-11-30T19:09:24.476Z,98337.31
2022-11-30T19:11:53.246Z,98334.00
2022-11-30T19:14:22.616Z,98341.63
2022-11-30T19:16:51.318Z,98338.78
2022-11-30T19:19:20.125Z,98337.25
2022-11-30T19:21:50.013Z,98346.34
2022-11-30T19:24:20.399Z,98342.47
2022-11-30T19:26:49.482Z,98337.66
2022-11-30T19:29:49.267Z,98330.63
2022-11-30T19:32:35.498Z,98337.81
2022-11-30T19:35:04.260Z,98341.44
2022-11-30T19:37:35.442Z,98338.19
2022-11-30T19:40:09.768Z,98340.75
2022-11-30T19:42:57.795Z,98346.94
2022-11-30T19:45:26.536Z,98352.50
2022-11-30T19:47:56.310Z,98343.66
2022-11-30T19:50:26.167Z,98349.38
2022-11-30T19:52:55.905Z,98355.56
2022-11-30T19:55:29.554Z,98351.19
2022-11-30T19:58:15.591Z,98354.56
2022-11-30T20:00:48.110Z,98361.03
2022-11-30T20:03:17.199Z,98369.94
2022-11-30T20:05:50.903Z,98363.91
2022-11-30T20:08:37.007Z,98366.56
2022-11-30T20:11:09.268Z,98367.50
2022-11-30T20:13:39.363Z,98362.91
2022-11-30T20:16:26.866Z,98374.38
2022-11-30T20:18:58.200Z,98368.84
2022-11-30T20:21:28.166Z,98364.78
2022-11-30T20:23:58.671Z,98362.03
2022-11-30T20:26:30.240Z,98372.03
2022-11-30T20:28:59.524Z,98366.41
2022-11-30T20:31:30.021Z,98366.28
2022-11-30T20:33:59.221Z,98355.50
2022-11-30T20:36:29.252Z,98354.47
2022-11-30T20:38:59.219Z,98361.84
2022-11-30T20:41:29.628Z,98359.94
2022-11-30T20:43:59.787Z,98360.38
2022-11-30T20:46:29.810Z,98364.94
2022-11-30T20:48:59.325Z,98362.78
2022-11-30T20:51:31.671Z,98371.00
2022-11-30T20:54:01.395Z,98371.56
2022-11-30T20:56:31.722Z,98366.56
2022-11-30T20:59:04.726Z,98367.09
2022-11-30T21:01:36.271Z,98377.75
2022-11-30T21:04:05.489Z,98370.38
2022-11-30T21:06:35.333Z,98366.63
2022-11-30T21:09:04.000Z,98381.44
2022-11-30T21:11:34.699Z,98376.31
2022-11-30T21:14:03.446Z,98377.41
2022-11-30T21:16:34.315Z,98375.09
2022-11-30T21:19:02.955Z,98374.25
2022-11-30T21:21:33.370Z,98371.38
2022-11-30T21:24:03.217Z,98370.31
2022-11-30T21:26:34.231Z,98369.63
2022-11-30T21:29:03.731Z,98370.91
2022-11-30T21:31:32.533Z,98380.00
2022-11-30T21:34:01.451Z,98375.19
2022-11-30T21:36:30.260Z,98374.59
2022-11-30T21:39:06.310Z,98379.06
2022-11-30T21:41:38.394Z,98385.47
2022-11-30T21:44:07.539Z,98382.97
2022-11-30T21:46:45.842Z,98391.19
2022-11-30T21:49:14.802Z,98384.38
2022-11-30T21:51:44.223Z,98388.44
2022-11-30T21:54:13.715Z,98389.38
2022-11-30T21:56:45.153Z,98385.81
2022-11-30T21:59:15.258Z,98385.09
2022-11-30T22:01:44.560Z,98380.25
2022-11-30T22:04:14.068Z,98379.25
2022-11-30T22:06:43.002Z,98375.56
2022-11-30T22:09:13.721Z,98375.19
2022-11-30T22:11:45.260Z,98392.66
2022-11-30T22:14:15.776Z,98383.75
2022-11-30T22:16:44.560Z,98380.31
2022-11-30T22:19:15.965Z,98375.78
2022-11-30T22:21:49.818Z,98377.31
2022-11-30T22:24:19.026Z,98384.22
2022-11-30T22:26:50.407Z,98371.19
2022-11-30T22:29:20.176Z,98376.44
2022-11-30T22:31:49.884Z,98377.44
2022-11-30T22:34:18.957Z,98378.38
2022-11-30T22:36:48.885Z,98382.66
2022-11-30T22:39:18.509Z,98380.41
2022-11-30T22:41:54.806Z,98374.16
2022-11-30T22:44:25.766Z,98382.91
2022-11-30T22:46:54.929Z,98385.56
2022-11-30T22:49:27.600Z,98387.91
2022-11-30T22:51:56.290Z,98387.19
2022-11-30T22:54:24.988Z,98389.78
2022-11-30T22:56:55.099Z,98397.97
2022-11-30T22:59:23.734Z,98391.59
2022-11-30T23:01:53.650Z,98391.59
2022-11-30T23:04:23.213Z,98393.31
2022-11-30T23:06:51.985Z,98388.13
2022-11-30T23:09:21.981Z,98389.00
2022-11-30T23:11:50.734Z,98382.44
2022-11-30T23:14:21.394Z,98382.41
2022-11-30T23:16:50.072Z,98381.56
2022-11-30T23:19:18.802Z,98380.53
2022-11-30T23:21:48.859Z,98388.44
2022-11-30T23:24:20.472Z,98380.00
2022-11-30T23:26:49.534Z,98382.28
2022-11-30T23:29:18.818Z,98386.41
2022-11-30T23:31:49.250Z,98377.09
2022-11-30T23:34:21.490Z,98378.28
2022-11-30T23:36:50.332Z,98375.72
2022-11-30T23:39:19.780Z,98379.00
2022-11-30T23:41:49.563Z,98375.25
2022-11-30T23:44:18.455Z,98378.53
2022-11-30T23:46:48.832Z,98376.50
2022-11-30T23:49:17.735Z,98375.97
2022-11-30T23:51:46.517Z,98378.69
2022-11-30T23:54:15.218Z,98377.81
2022-11-30T23:56:44.719Z,98375.00
2022-11-30T23:59:13.668Z,98385.16
